createdAt,value
2017-08-02T00:00:37.062Z,20.98
2017-08-02T00:01:37.064Z,21.04
2017-08-02T00:02:37.059Z,21.03
2017-08-02T00:03:37.057Z,21.01
2017-08-02T00:04:37.058Z,21.05
2017-08-02T00:05:36.750Z,21.08
2017-08-02T00:06:37.059Z,21.14
2017-08-02T00:07:36.745Z,21.17
2017-08-02T00:08:37.053Z,21.03
2017-08-02T00:09:37.047Z,21.07
2017-08-02T00:10:37.148Z,20.83
2017-08-02T00:11:37.045Z,20.89
2017-08-02T00:12:37.040Z,20.75
2017-08-02T00:13:37.043Z,20.75
2017-08-02T00:14:37.040Z,20.75
2017-08-02T00:15:37.239Z,20.71
2017-08-02T00:16:37.137Z,20.7
2017-08-02T00:17:37.037Z,20.67
2017-08-02T00:18:36.928Z,20.66
2017-08-02T00:19:37.026Z,20.59
2017-08-02T00:20:37.128Z,20.59
2017-08-02T00:21:37.026Z,20.63
2017-08-02T00:22:37.029Z,20.6
2017-08-02T00:23:37.130Z,20.55
2017-08-02T00:24:36.718Z,20.55
2017-08-02T00:25:37.026Z,20.63
2017-08-02T00:26:37.028Z,20.55
2017-08-02T00:27:37.024Z,20.52
2017-08-02T00:28:36.813Z,20.53
2017-08-02T00:29:36.809Z,20.56
2017-08-02T00:30:36.708Z,20.58
2017-08-02T00:31:37.011Z,20.55
2017-08-02T00:32:37.114Z,20.52
2017-08-02T00:33:37.008Z,20.53
2017-08-02T00:34:37.007Z,20.48
2017-08-02T00:35:36.703Z,20.44
2017-08-02T00:36:37.158Z,20.49
2017-08-02T00:37:37.002Z,20.44
2017-08-02T00:38:37.000Z,20.49
2017-08-02T00:39:37.004Z,20.5
2017-08-02T00:40:37.095Z,20.44
2017-08-02T00:41:37.148Z,20.42
2017-08-02T00:42:36.991Z,20.49
2017-08-02T00:43:36.996Z,20.5
2017-08-02T00:44:36.990Z,20.48
2017-08-02T00:45:37.087Z,20.49
2017-08-02T00:46:36.984Z,20.55
2017-08-02T00:47:36.978Z,20.46
2017-08-02T00:48:37.079Z,20.46
2017-08-02T00:49:37.080Z,20.52
2017-08-02T00:50:36.977Z,20.53
2017-08-02T00:51:36.769Z,20.44
2017-08-02T00:52:36.984Z,20.53
2017-08-02T00:53:36.969Z,20.42
2017-08-02T00:54:37.069Z,20.48
2017-08-02T00:55:36.970Z,20.3
2017-08-02T00:56:37.167Z,20.33
2017-08-02T00:57:36.970Z,20.33
2017-08-02T00:58:36.966Z,20.32
2017-08-02T00:59:36.965Z,20.36
2017-08-02T01:00:36.967Z,20.3
2017-08-02T01:01:37.059Z,20.32
2017-08-02T01:02:36.950Z,20.22
2017-08-02T01:03:36.954Z,20.26
2017-08-02T01:04:36.950Z,20.3
2017-08-02T01:05:36.949Z,20.3
2017-08-02T01:06:36.950Z,20.36
2017-08-02T01:07:37.043Z,20.32
2017-08-02T01:08:36.950Z,20.34
2017-08-02T01:09:36.940Z,20.33
2017-08-02T01:10:36.949Z,20.27
2017-08-02T01:11:36.941Z,20.39
2017-08-02T01:12:37.188Z,20.42
2017-08-02T01:13:36.945Z,20.33
2017-08-02T01:14:36.933Z,20.27
2017-08-02T01:15:36.942Z,20.34
2017-08-02T01:16:36.626Z,20.33
2017-08-02T01:17:37.033Z,20.33
2017-08-02T01:18:36.928Z,20.32
2017-08-02T01:19:36.926Z,20.33
2017-08-02T01:20:36.926Z,20.24
2017-08-02T01:21:36.942Z,19.97
2017-08-02T01:22:36.918Z,19.6
2017-08-02T01:23:36.921Z,19.35
2017-08-02T01:24:36.608Z,19.19
2017-08-02T01:25:36.913Z,19.07
2017-08-02T01:26:36.922Z,19.09
2017-08-02T01:27:37.009Z,19.17
2017-08-02T01:28:36.907Z,19.19
2017-08-02T01:29:36.906Z,19.29
2017-08-02T01:30:36.904Z,19.35
2017-08-02T01:31:36.906Z,19.32
2017-08-02T01:32:36.901Z,19.34
2017-08-02T01:33:36.997Z,19.27
2017-08-02T01:34:36.896Z,19.26
2017-08-02T01:35:36.896Z,19.27
2017-08-02T01:36:36.901Z,19.11
2017-08-02T01:37:36.892Z,19.12
2017-08-02T01:38:36.685Z,19.08
2017-08-02T01:39:36.887Z,19.11
2017-08-02T01:40:36.886Z,19.2
2017-08-02T01:41:36.586Z,19.16
2017-08-02T01:42:36.882Z,19.22
2017-08-02T01:43:36.680Z,19.2
2017-08-02T01:44:37.276Z,19.22
2017-08-02T01:45:36.873Z,19.3
2017-08-02T01:46:36.880Z,19.22
2017-08-02T01:47:36.972Z,19.22
2017-08-02T01:48:36.663Z,19.29
2017-08-02T01:49:36.969Z,19.24
2017-08-02T01:50:36.869Z,19.26
2017-08-02T01:51:36.859Z,19.29
2017-08-02T01:52:36.966Z,19.37
2017-08-02T01:53:36.965Z,19.27
2017-08-02T01:54:36.859Z,19.41
2017-08-02T01:55:36.855Z,19.34
2017-08-02T01:56:36.953Z,19.34
2017-08-02T01:57:36.852Z,19.35
2017-08-02T01:58:36.846Z,19.39
2017-08-02T01:59:37.050Z,19.37
2017-08-02T02:00:36.843Z,19.34
2017-08-02T02:01:36.843Z,19.39
2017-08-02T02:02:36.840Z,19.38
2017-08-02T02:03:36.834Z,19.38
2017-08-02T02:04:36.832Z,19.37
2017-08-02T02:05:36.838Z,19.35
2017-08-02T02:06:36.934Z,19.38
2017-08-02T02:07:36.931Z,19.37
2017-08-02T02:08:36.833Z,19.38
2017-08-02T02:09:36.826Z,19.27
2017-08-02T02:10:36.825Z,19.41
2017-08-02T02:11:36.921Z,19.35
2017-08-02T02:12:36.821Z,19.35
2017-08-02T02:13:36.918Z,19.34
2017-08-02T02:14:36.914Z,19.35
2017-08-02T02:15:36.921Z,19.29
2017-08-02T02:16:36.707Z,19.34
2017-08-02T02:17:36.812Z,19.35
2017-08-02T02:18:36.813Z,19.3
2017-08-02T02:19:36.904Z,19.34
2017-08-02T02:20:36.818Z,19.39
2017-08-02T02:21:36.906Z,19.26
2017-08-02T02:22:36.805Z,19.32
2017-08-02T02:23:36.189Z,19.35
2017-08-02T02:24:36.596Z,19.34
2017-08-02T02:25:36.792Z,19.32
2017-08-02T02:26:36.795Z,19.27
2017-08-02T02:27:36.897Z,19.35
2017-08-02T02:28:36.804Z,19.32
2017-08-02T02:29:36.786Z,19.34
2017-08-02T02:30:36.781Z,19.35
2017-08-02T02:31:36.782Z,19.34
2017-08-02T02:32:36.777Z,19.37
2017-08-02T02:33:36.778Z,19.41
2017-08-02T02:34:36.779Z,19.26
2017-08-02T02:35:36.783Z,19.35
2017-08-02T02:36:36.870Z,19.32
2017-08-02T02:37:36.870Z,19.29
2017-08-02T02:38:36.770Z,19.38
2017-08-02T02:39:36.771Z,19.39
2017-08-02T02:40:36.768Z,19.38
2017-08-02T02:41:36.771Z,19.39
2017-08-02T02:42:36.759Z,19.32
2017-08-02T02:43:36.450Z,19.39
2017-08-02T02:44:36.760Z,19.37
2017-08-02T02:45:36.763Z,19.42
2017-08-02T02:46:36.448Z,19.41
2017-08-02T02:47:36.746Z,19.48
2017-08-02T02:48:36.948Z,19.47
2017-08-02T02:49:36.753Z,19.42
2017-08-02T02:50:36.743Z,19.47
2017-08-02T02:51:36.742Z,19.52
2017-08-02T02:52:36.739Z,19.42
2017-08-02T02:53:36.836Z,19.42
2017-08-02T02:54:36.732Z,19.42
2017-08-02T02:55:36.831Z,19.41
2017-08-02T02:56:36.886Z,19.45
2017-08-02T02:57:36.727Z,19.37
2017-08-02T02:58:36.724Z,19.37
2017-08-02T02:59:36.725Z,19.39
2017-08-02T03:00:36.723Z,19.39
2017-08-02T03:01:36.721Z,19.37
2017-08-02T03:02:36.520Z,19.38
2017-08-02T03:03:36.512Z,19.44
2017-08-02T03:04:36.813Z,19.45
2017-08-02T03:05:36.710Z,19.39
2017-08-02T03:06:36.551Z,19.42
2017-08-02T03:07:36.708Z,19.47
2017-08-02T03:08:36.705Z,19.48
2017-08-02T03:09:36.703Z,19.39
2017-08-02T03:10:36.708Z,19.35
2017-08-02T03:11:36.794Z,19.44
2017-08-02T03:12:36.704Z,19.52
2017-08-02T03:13:36.700Z,19.37
2017-08-02T03:14:36.694Z,19.41
2017-08-02T03:15:36.792Z,19.38
2017-08-02T03:16:36.794Z,19.39
2017-08-02T03:17:36.839Z,19.37
2017-08-02T03:18:36.686Z,19.38
2017-08-02T03:19:36.686Z,19.37
2017-08-02T03:20:36.780Z,19.41
2017-08-02T03:21:36.678Z,19.32
2017-08-02T03:22:36.677Z,19.41
2017-08-02T03:23:36.823Z,19.37
2017-08-02T03:24:36.371Z,19.37
2017-08-02T03:25:36.364Z,19.41
2017-08-02T03:26:36.768Z,19.38
2017-08-02T03:27:36.360Z,19.38
2017-08-02T03:28:36.813Z,19.24
2017-08-02T03:29:36.360Z,19.34
2017-08-02T03:30:36.674Z,19.35
2017-08-02T03:31:36.761Z,19.29
2017-08-02T03:32:36.654Z,19.3
2017-08-02T03:33:36.653Z,19.24
2017-08-02T03:34:36.903Z,19.27
2017-08-02T03:35:36.647Z,19.29
2017-08-02T03:36:36.645Z,19.27
2017-08-02T03:37:36.747Z,19.19
2017-08-02T03:38:36.746Z,19.2
2017-08-02T03:39:36.742Z,19.15
2017-08-02T03:40:36.741Z,19.17
2017-08-02T03:41:36.740Z,19.11
2017-08-02T03:42:36.633Z,19.15
2017-08-02T03:43:36.638Z,19.19
2017-08-02T03:44:36.329Z,19.15
2017-08-02T03:45:36.630Z,19.15
2017-08-02T03:46:36.628Z,19.15
2017-08-02T03:47:36.726Z,19.16
2017-08-02T03:48:36.625Z,19.11
2017-08-02T03:49:36.722Z,19.09
2017-08-02T03:50:36.621Z,19.05
2017-08-02T03:51:36.627Z,19.08
2017-08-02T03:52:36.612Z,19.12
2017-08-02T03:53:36.614Z,19.04
2017-08-02T03:54:36.610Z,19.12
2017-08-02T03:55:36.807Z,19.12
2017-08-02T03:56:36.613Z,19.04
2017-08-02T03:57:36.807Z,19.15
2017-08-02T03:58:36.600Z,19.09
2017-08-02T03:59:36.601Z,19.07
2017-08-02T04:00:36.294Z,19.05
2017-08-02T04:01:36.595Z,19.01
2017-08-02T04:02:36.695Z,19
2017-08-02T04:03:36.598Z,19.01
2017-08-02T04:04:36.589Z,19.05
2017-08-02T04:05:36.594Z,19.04
2017-08-02T04:06:36.584Z,18.97
2017-08-02T04:07:36.691Z,19
2017-08-02T04:08:36.585Z,19.04
2017-08-02T04:09:36.576Z,19.05
2017-08-02T04:10:36.678Z,19.11
2017-08-02T04:11:36.576Z,19.09
2017-08-02T04:12:36.676Z,19
2017-08-02T04:13:36.571Z,19.07
2017-08-02T04:14:36.566Z,19
2017-08-02T04:15:36.564Z,19.09
2017-08-02T04:16:36.564Z,19.09
2017-08-02T04:17:36.560Z,19.15
2017-08-02T04:18:36.561Z,19.17
2017-08-02T04:19:36.554Z,19.17
2017-08-02T04:20:36.656Z,19.15
2017-08-02T04:21:36.552Z,19.17
2017-08-02T04:22:36.654Z,19.15
2017-08-02T04:23:36.555Z,19.16
2017-08-02T04:24:36.645Z,19.19
2017-08-02T04:25:36.546Z,19.11
2017-08-02T04:26:36.541Z,19.16
2017-08-02T04:27:36.231Z,19.19
2017-08-02T04:28:36.537Z,19.19
2017-08-02T04:29:36.637Z,19.26
2017-08-02T04:30:36.635Z,19.29
2017-08-02T04:31:36.631Z,19.3
2017-08-02T04:32:36.530Z,19.41
2017-08-02T04:33:36.526Z,19.41
2017-08-02T04:34:35.912Z,19.45
2017-08-02T04:35:36.620Z,19.47
2017-08-02T04:36:36.523Z,19.47
2017-08-02T04:37:36.720Z,19.49
2017-08-02T04:38:36.520Z,19.52
2017-08-02T04:39:36.522Z,19.6
2017-08-02T04:40:36.612Z,19.6
2017-08-02T04:41:36.507Z,19.67
2017-08-02T04:42:36.503Z,19.7
2017-08-02T04:43:36.514Z,19.81
2017-08-02T04:44:36.653Z,19.75
2017-08-02T04:45:36.503Z,19.92
2017-08-02T04:46:36.504Z,19.92
2017-08-02T04:47:36.599Z,20.15
2017-08-02T04:48:36.494Z,20.24
2017-08-02T04:49:36.691Z,20.44
2017-08-02T04:50:36.492Z,20.66
2017-08-02T04:51:36.494Z,20.83
2017-08-02T04:52:36.491Z,21.05
2017-08-02T04:53:36.587Z,21.05
2017-08-02T04:54:36.483Z,21.13
2017-08-02T04:55:36.176Z,21.26
2017-08-02T04:56:36.478Z,21.37
2017-08-02T04:57:36.475Z,21.56
2017-08-02T04:58:36.580Z,21.66
2017-08-02T04:59:36.476Z,21.63
2017-08-02T05:00:36.474Z,21.72
2017-08-02T05:01:36.472Z,21.78
2017-08-02T05:02:36.476Z,21.94
2017-08-02T05:03:36.465Z,22
2017-08-02T05:04:36.464Z,22.15
2017-08-02T05:05:36.563Z,22.25
2017-08-02T05:06:36.592Z,22.4
2017-08-02T05:07:36.659Z,22.53
2017-08-02T05:08:36.559Z,22.61
2017-08-02T05:09:36.461Z,22.81
2017-08-02T05:10:36.455Z,22.84
2017-08-02T05:11:36.556Z,23.01
2017-08-02T05:12:36.467Z,23.1
2017-08-02T05:13:36.452Z,23.08
2017-08-02T05:14:36.452Z,23.32
2017-08-02T05:15:36.548Z,23.42
2017-08-02T05:16:36.452Z,23.51
2017-08-02T05:17:36.141Z,23.64
2017-08-02T05:18:36.542Z,23.7
2017-08-02T05:19:36.452Z,23.62
2017-08-02T05:20:36.443Z,23.52
2017-08-02T05:21:36.443Z,23.4
2017-08-02T05:22:36.443Z,23.2
2017-08-02T05:23:36.440Z,22.91
2017-08-02T05:24:36.436Z,22.88
2017-08-02T05:25:36.540Z,22.67
2017-08-02T05:26:36.129Z,22.62
2017-08-02T05:27:36.128Z,22.52
2017-08-02T05:28:36.146Z,22.46
2017-08-02T05:29:36.431Z,22.46
2017-08-02T05:30:36.433Z,22.47
2017-08-02T05:31:36.526Z,22.43
2017-08-02T05:32:36.427Z,22.33
2017-08-02T05:33:36.423Z,22.34
2017-08-02T05:34:36.576Z,22.25
2017-08-02T05:35:36.127Z,22.3
2017-08-02T05:36:36.426Z,22.25
2017-08-02T05:37:36.121Z,22.16
2017-08-02T05:38:36.440Z,22.19
2017-08-02T05:39:36.517Z,22.06
2017-08-02T05:40:36.420Z,22.07
2017-08-02T05:41:36.551Z,22
2017-08-02T05:42:36.509Z,22.03
2017-08-02T05:43:36.411Z,21.92
2017-08-02T05:44:36.409Z,21.99
2017-08-02T05:45:36.409Z,21.84
2017-08-02T05:46:36.406Z,21.85
2017-08-02T05:47:36.405Z,21.89
2017-08-02T05:48:36.504Z,21.91
2017-08-02T05:49:36.407Z,21.83
2017-08-02T05:50:36.403Z,21.97
2017-08-02T05:51:36.401Z,21.92
2017-08-02T05:52:36.399Z,21.92
2017-08-02T05:53:36.501Z,21.96
2017-08-02T05:54:36.393Z,21.94
2017-08-02T05:55:36.393Z,21.84
2017-08-02T05:56:36.089Z,21.96
2017-08-02T05:57:36.393Z,21.91
2017-08-02T05:58:36.089Z,22.04
2017-08-02T05:59:36.597Z,22.15
2017-08-02T06:00:36.396Z,22.36
2017-08-02T06:01:36.404Z,22.52
2017-08-02T06:02:36.491Z,22.62
2017-08-02T06:03:36.086Z,22.91
2017-08-02T06:04:36.394Z,23.02
2017-08-02T06:05:36.390Z,22.99
2017-08-02T06:06:36.386Z,23.01
2017-08-02T06:07:36.382Z,23.07
2017-08-02T06:08:36.383Z,23.2
2017-08-02T06:09:36.383Z,23.4
2017-08-02T06:10:36.382Z,23.79
2017-08-02T06:11:36.383Z,24.25
2017-08-02T06:12:36.385Z,24.56
2017-08-02T06:13:36.069Z,24.93
2017-08-02T06:14:36.073Z,25.07
2017-08-02T06:15:36.375Z,25.18
2017-08-02T06:16:36.474Z,25.34
2017-08-02T06:17:36.070Z,25.66
2017-08-02T06:18:36.380Z,25.89
2017-08-02T06:19:36.373Z,26.13
2017-08-02T06:20:36.069Z,26.37
2017-08-02T06:21:36.168Z,26.6
2017-08-02T06:22:36.376Z,26.73
2017-08-02T06:23:36.067Z,26.89
2017-08-02T06:24:36.391Z,27.08
2017-08-02T06:25:36.378Z,27.15
2017-08-02T06:26:36.377Z,26.93
2017-08-02T06:27:36.168Z,26.92
2017-08-02T06:28:36.376Z,26.98
2017-08-02T06:29:36.380Z,26.96
2017-08-02T06:30:36.379Z,26.93
2017-08-02T06:31:36.073Z,27.01
2017-08-02T06:32:36.404Z,27.23
2017-08-02T06:33:36.378Z,27.57
2017-08-02T06:34:36.380Z,27.53
2017-08-02T06:35:36.483Z,27.57
2017-08-02T06:36:36.479Z,27.34
2017-08-02T06:37:36.494Z,27.19
2017-08-02T06:38:36.380Z,26.93
2017-08-02T06:39:36.381Z,26.76
2017-08-02T06:40:36.386Z,26.61
2017-08-02T06:41:36.081Z,26.7
2017-08-02T06:42:36.383Z,27
2017-08-02T06:43:36.386Z,27.38
2017-08-02T06:44:36.390Z,27.73
2017-08-02T06:45:36.392Z,28.16
2017-08-02T06:46:36.493Z,28.49
2017-08-02T06:47:36.391Z,28.82
2017-08-02T06:48:36.393Z,29.16
2017-08-02T06:49:36.391Z,29.22
2017-08-02T06:50:36.085Z,29.1
2017-08-02T06:51:36.085Z,28.96
2017-08-02T06:52:36.396Z,28.83
2017-08-02T06:53:36.089Z,28.75
2017-08-02T06:54:36.089Z,28.41
2017-08-02T06:55:36.090Z,28.15
2017-08-02T06:56:36.399Z,27.91
2017-08-02T06:57:36.401Z,27.68
2017-08-02T06:58:36.193Z,27.52
2017-08-02T06:59:36.213Z,27.29
2017-08-02T07:00:36.400Z,27.37
2017-08-02T07:01:36.399Z,27.71
2017-08-02T07:02:36.096Z,28
2017-08-02T07:03:36.402Z,28.4
2017-08-02T07:04:36.421Z,28.45
2017-08-02T07:05:36.407Z,28.43
2017-08-02T07:06:36.297Z,28.28
2017-08-02T07:07:36.404Z,28.33
2017-08-02T07:08:36.402Z,28.34
2017-08-02T07:09:36.404Z,28.23
2017-08-02T07:10:36.508Z,28.03
2017-08-02T07:11:36.404Z,28.08
2017-08-02T07:12:36.105Z,28.23
2017-08-02T07:13:36.407Z,28.12
2017-08-02T07:14:36.409Z,28.15
2017-08-02T07:15:36.200Z,28.12
2017-08-02T07:16:36.414Z,27.86
2017-08-02T07:17:36.417Z,27.71
2017-08-02T07:18:36.414Z,27.58
2017-08-02T07:19:36.426Z,27.34
2017-08-02T07:20:36.104Z,27.04
2017-08-02T07:21:36.418Z,26.86
2017-08-02T07:22:36.413Z,26.67
2017-08-02T07:23:36.415Z,26.45
2017-08-02T07:24:36.512Z,26.29
2017-08-02T07:25:36.101Z,26.11
2017-08-02T07:26:36.412Z,26.07
2017-08-02T07:27:36.511Z,26.13
2017-08-02T07:28:36.437Z,25.95
2017-08-02T07:29:36.510Z,25.92
2017-08-02T07:30:36.416Z,25.85
2017-08-02T07:31:36.409Z,25.88
2017-08-02T07:32:36.409Z,25.88
2017-08-02T07:33:36.411Z,26.3
2017-08-02T07:34:36.519Z,26.24
2017-08-02T07:35:36.410Z,26.24
2017-08-02T07:36:36.511Z,26.26
2017-08-02T07:37:36.418Z,26.24
2017-08-02T07:38:36.409Z,26.18
2017-08-02T07:39:36.516Z,26.29
2017-08-02T07:40:36.405Z,26.24
2017-08-02T07:41:36.503Z,26.26
2017-08-02T07:42:36.412Z,26.18
2017-08-02T07:43:36.414Z,26.3
2017-08-02T07:44:36.412Z,26.61
2017-08-02T07:45:36.403Z,27.03
2017-08-02T07:46:36.409Z,27.67
2017-08-02T07:47:36.503Z,28.2
2017-08-02T07:48:36.406Z,28.84
2017-08-02T07:49:36.507Z,29.27
2017-08-02T07:50:36.407Z,29.47
2017-08-02T07:51:36.406Z,29.86
2017-08-02T07:52:36.402Z,30.24
2017-08-02T07:53:36.552Z,30.36
2017-08-02T07:54:36.399Z,30.65
2017-08-02T07:55:36.405Z,30.71
2017-08-02T07:56:36.408Z,30.77
2017-08-02T07:57:36.402Z,30.81
2017-08-02T07:58:36.398Z,30.98
2017-08-02T07:59:36.440Z,31.23
2017-08-02T08:00:36.401Z,31.35
2017-08-02T08:01:36.401Z,31.33
2017-08-02T08:02:36.394Z,31.42
2017-08-02T08:03:36.500Z,31.54
2017-08-02T08:04:36.404Z,31.5
2017-08-02T08:05:36.399Z,31.55
2017-08-02T08:06:36.396Z,31.57
2017-08-02T08:07:36.395Z,31.79
2017-08-02T08:08:36.398Z,31.77
2017-08-02T08:09:36.495Z,31.85
2017-08-02T08:10:36.190Z,31.98
2017-08-02T08:11:36.395Z,31.86
2017-08-02T08:12:36.396Z,31.9
2017-08-02T08:13:36.400Z,31.97
2017-08-02T08:14:36.394Z,31.82
2017-08-02T08:15:36.399Z,31.82
2017-08-02T08:16:36.094Z,32.02
2017-08-02T08:17:36.088Z,32.29
2017-08-02T08:18:36.396Z,32.86
2017-08-02T08:19:36.089Z,33.16
2017-08-02T08:20:36.391Z,33.31
2017-08-02T08:21:36.497Z,33.4
2017-08-02T08:22:36.399Z,33.7
2017-08-02T08:23:36.394Z,34
2017-08-02T08:24:36.393Z,34.25
2017-08-02T08:25:36.400Z,34.48
2017-08-02T08:26:36.498Z,34.7
2017-08-02T08:27:36.645Z,34.85
2017-08-02T08:28:36.398Z,34.65
2017-08-02T08:29:36.498Z,34.25
2017-08-02T08:30:36.397Z,33.85
2017-08-02T08:31:36.083Z,33.66
2017-08-02T08:32:36.393Z,33.4
2017-08-02T08:33:36.521Z,33.08
2017-08-02T08:34:36.396Z,32.97
2017-08-02T08:35:36.396Z,33.01
2017-08-02T08:36:35.777Z,33.2
2017-08-02T08:37:36.394Z,33.55
2017-08-02T08:38:36.395Z,33.76
2017-08-02T08:39:36.493Z,33.88
2017-08-02T08:40:36.411Z,33.95
2017-08-02T08:41:36.488Z,33.82
2017-08-02T08:42:36.392Z,33.42
2017-08-02T08:43:36.396Z,32.95
2017-08-02T08:44:36.394Z,32.59
2017-08-02T08:45:36.389Z,32.26
2017-08-02T08:46:36.387Z,31.82
2017-08-02T08:47:36.490Z,31.5
2017-08-02T08:48:36.389Z,30.99
2017-08-02T08:49:36.393Z,30.71
2017-08-02T08:50:36.539Z,30.32
2017-08-02T08:51:36.391Z,30.13
2017-08-02T08:52:36.490Z,29.92
2017-08-02T08:53:36.488Z,29.84
2017-08-02T08:54:36.182Z,29.77
2017-08-02T08:55:36.083Z,29.73
2017-08-02T08:56:36.388Z,29.69
2017-08-02T08:57:36.084Z,29.65
2017-08-02T08:58:36.490Z,29.61
2017-08-02T08:59:36.389Z,29.49
2017-08-02T09:00:36.386Z,29.42
2017-08-02T09:01:36.484Z,29.39
2017-08-02T09:02:36.390Z,29.37
2017-08-02T09:03:36.487Z,29.27
2017-08-02T09:04:36.392Z,29.13
2017-08-02T09:05:36.482Z,29
2017-08-02T09:06:36.385Z,28.96
2017-08-02T09:07:36.386Z,28.92
2017-08-02T09:08:36.384Z,28.86
2017-08-02T09:09:36.384Z,28.84
2017-08-02T09:10:36.388Z,28.72
2017-08-02T09:11:36.485Z,28.7
2017-08-02T09:12:36.386Z,28.72
2017-08-02T09:13:36.384Z,28.77
2017-08-02T09:14:36.386Z,28.71
2017-08-02T09:15:36.078Z,28.71
2017-08-02T09:16:36.382Z,28.67
2017-08-02T09:17:36.227Z,28.57
2017-08-02T09:18:36.384Z,28.67
2017-08-02T09:19:36.388Z,28.56
2017-08-02T09:20:36.390Z,28.53
2017-08-02T09:21:36.072Z,28.49
2017-08-02T09:22:36.075Z,28.47
2017-08-02T09:23:36.073Z,28.52
2017-08-02T09:24:36.377Z,28.49
2017-08-02T09:25:36.079Z,28.56
2017-08-02T09:26:36.378Z,28.56
2017-08-02T09:27:36.380Z,28.47
2017-08-02T09:28:35.765Z,28.53
2017-08-02T09:29:36.480Z,28.59
2017-08-02T09:30:36.372Z,28.65
2017-08-02T09:31:36.374Z,28.45
2017-08-02T09:32:36.380Z,28.49
2017-08-02T09:33:35.766Z,28.37
2017-08-02T09:34:36.069Z,28.15
2017-08-02T09:35:36.472Z,28.22
2017-08-02T09:36:36.471Z,28.18
2017-08-02T09:37:36.370Z,28.16
2017-08-02T09:38:36.369Z,28.08
2017-08-02T09:39:36.061Z,28.09
2017-08-02T09:40:35.758Z,28.1
2017-08-02T09:41:36.369Z,28.1
2017-08-02T09:42:36.369Z,28.08
2017-08-02T09:43:36.368Z,27.97
2017-08-02T09:44:36.373Z,27.83
2017-08-02T09:45:36.367Z,27.9
2017-08-02T09:46:36.372Z,27.81
2017-08-02T09:47:36.064Z,27.81
2017-08-02T09:48:36.368Z,27.91
2017-08-02T09:49:36.370Z,27.93
2017-08-02T09:50:36.372Z,27.93
2017-08-02T09:51:36.364Z,27.95
2017-08-02T09:52:36.509Z,27.93
2017-08-02T09:53:36.158Z,27.97
2017-08-02T09:54:36.369Z,27.97
2017-08-02T09:55:36.360Z,28.06
2017-08-02T09:56:36.364Z,28.06
2017-08-02T09:57:36.155Z,28.09
2017-08-02T09:58:36.058Z,28.1
2017-08-02T09:59:36.356Z,28.09
2017-08-02T10:00:36.358Z,28.15
2017-08-02T10:01:36.454Z,28.27
2017-08-02T10:02:36.360Z,28.3
2017-08-02T10:03:36.364Z,28.2
2017-08-02T10:04:36.463Z,28.2
2017-08-02T10:05:36.049Z,28.2
2017-08-02T10:06:36.451Z,28.23
2017-08-02T10:07:35.742Z,28.23
2017-08-02T10:08:36.050Z,28.09
2017-08-02T10:09:36.500Z,28.03
2017-08-02T10:10:36.354Z,27.88
2017-08-02T10:11:36.042Z,27.86
2017-08-02T10:12:35.740Z,27.91
2017-08-02T10:13:36.352Z,27.9
2017-08-02T10:14:36.356Z,27.93
2017-08-02T10:15:36.346Z,27.79
2017-08-02T10:16:36.345Z,27.6
2017-08-02T10:17:35.934Z,27.66
2017-08-02T10:18:36.343Z,27.75
2017-08-02T10:19:36.191Z,27.72
2017-08-02T10:20:36.050Z,27.82
2017-08-02T10:21:35.729Z,27.83
2017-08-02T10:22:36.061Z,27.86
2017-08-02T10:23:36.338Z,27.83
2017-08-02T10:24:36.497Z,27.9
2017-08-02T10:25:36.337Z,27.88
2017-08-02T10:26:36.334Z,27.95
2017-08-02T10:27:36.140Z,27.93
2017-08-02T10:28:36.028Z,27.97
2017-08-02T10:29:36.238Z,28.01
2017-08-02T10:30:36.134Z,28.09
2017-08-02T10:31:36.333Z,28
2017-08-02T10:32:36.032Z,27.97
2017-08-02T10:33:36.336Z,27.94
2017-08-02T10:34:36.134Z,27.95
2017-08-02T10:35:36.337Z,27.88
2017-08-02T10:36:35.726Z,27.9
2017-08-02T10:37:36.031Z,27.88
2017-08-02T10:38:36.330Z,27.82
2017-08-02T10:39:36.326Z,27.76
2017-08-02T10:40:36.331Z,27.85
2017-08-02T10:41:36.021Z,27.72
2017-08-02T10:42:36.128Z,27.75
2017-08-02T10:43:36.024Z,27.66
2017-08-02T10:44:36.326Z,27.66
2017-08-02T10:45:36.121Z,27.75
2017-08-02T10:46:36.124Z,27.78
2017-08-02T10:47:36.122Z,27.78
2017-08-02T10:48:35.713Z,27.94
2017-08-02T10:49:36.323Z,27.88
2017-08-02T10:50:36.320Z,27.91
2017-08-02T10:51:36.320Z,28.12
2017-08-02T10:52:36.117Z,28.1
2017-08-02T10:53:36.018Z,28.15
2017-08-02T10:54:36.017Z,28.23
2017-08-02T10:55:36.008Z,28.22
2017-08-02T10:56:36.413Z,28.2
2017-08-02T10:57:36.415Z,28.25
2017-08-02T10:58:36.314Z,28.23
2017-08-02T10:59:36.315Z,28.2
2017-08-02T11:00:36.316Z,28.22
2017-08-02T11:01:36.409Z,28.16
2017-08-02T11:02:36.312Z,28.09
2017-08-02T11:03:36.411Z,28.23
2017-08-02T11:04:36.309Z,28.12
2017-08-02T11:05:36.317Z,28.22
2017-08-02T11:06:36.007Z,28.33
2017-08-02T11:07:36.316Z,28.27
2017-08-02T11:08:36.314Z,28.27
2017-08-02T11:09:36.001Z,28.35
2017-08-02T11:10:36.312Z,28.38
2017-08-02T11:11:36.314Z,28.38
2017-08-02T11:12:36.007Z,28.34
2017-08-02T11:13:36.311Z,28.31
2017-08-02T11:14:36.406Z,28.2
2017-08-02T11:15:36.100Z,28.31
2017-08-02T11:16:35.993Z,28.25
2017-08-02T11:17:35.996Z,28.34
2017-08-02T11:18:35.995Z,28.35
2017-08-02T11:19:35.995Z,28.37
2017-08-02T11:20:35.991Z,28.4
2017-08-02T11:21:35.994Z,28.55
2017-08-02T11:22:35.994Z,28.52
2017-08-02T11:23:36.317Z,28.55
2017-08-02T11:24:36.090Z,28.53
2017-08-02T11:25:35.990Z,28.65
2017-08-02T11:26:35.685Z,28.62
2017-08-02T11:27:36.088Z,28.6
2017-08-02T11:28:35.989Z,28.75
2017-08-02T11:29:36.297Z,28.72
2017-08-02T11:30:35.991Z,28.77
2017-08-02T11:31:35.988Z,28.65
2017-08-02T11:32:36.297Z,28.72
2017-08-02T11:33:36.293Z,28.75
2017-08-02T11:34:36.285Z,28.7
2017-08-02T11:35:35.987Z,28.75
2017-08-02T11:36:36.384Z,28.68
2017-08-02T11:37:36.296Z,28.7
2017-08-02T11:38:35.978Z,28.64
2017-08-02T11:39:36.085Z,28.67
2017-08-02T11:40:36.101Z,28.64
2017-08-02T11:41:36.074Z,28.65
2017-08-02T11:42:35.980Z,28.64
2017-08-02T11:43:36.281Z,28.7
2017-08-02T11:44:35.980Z,28.68
2017-08-02T11:45:35.982Z,28.65
2017-08-02T11:46:36.225Z,28.57
2017-08-02T11:47:35.977Z,28.67
2017-08-02T11:48:35.669Z,28.64
2017-08-02T11:49:36.282Z,28.72
2017-08-02T11:50:35.672Z,28.68
2017-08-02T11:51:36.282Z,28.71
2017-08-02T11:52:35.975Z,28.65
2017-08-02T11:53:36.273Z,28.75
2017-08-02T11:54:35.970Z,28.72
2017-08-02T11:55:35.971Z,28.62
2017-08-02T11:56:36.281Z,28.75
2017-08-02T11:57:35.970Z,28.77
2017-08-02T11:58:36.370Z,28.75
2017-08-02T11:59:36.275Z,28.75
2017-08-02T12:00:35.969Z,28.74
2017-08-02T12:01:35.660Z,28.84
2017-08-02T12:02:35.757Z,28.86
2017-08-02T12:03:36.280Z,28.83
2017-08-02T12:04:35.967Z,28.89
2017-08-02T12:05:35.962Z,28.89
2017-08-02T12:06:36.265Z,28.92
2017-08-02T12:07:35.962Z,28.84
2017-08-02T12:08:36.283Z,29
2017-08-02T12:09:35.960Z,28.87
2017-08-02T12:10:36.268Z,28.89
2017-08-02T12:11:36.265Z,28.89
2017-08-02T12:12:36.054Z,28.84
2017-08-02T12:13:36.262Z,28.83
2017-08-02T12:14:36.259Z,28.82
2017-08-02T12:15:36.053Z,28.82
2017-08-02T12:16:35.958Z,28.8
2017-08-02T12:17:36.362Z,28.82
2017-08-02T12:18:36.052Z,28.78
2017-08-02T12:19:35.948Z,28.84
2017-08-02T12:20:36.270Z,28.8
2017-08-02T12:21:36.260Z,28.77
2017-08-02T12:22:35.945Z,28.78
2017-08-02T12:23:36.050Z,28.8
2017-08-02T12:24:36.364Z,28.77
2017-08-02T12:25:35.945Z,28.87
2017-08-02T12:26:35.948Z,28.84
2017-08-02T12:27:36.255Z,28.84
2017-08-02T12:28:36.353Z,28.96
2017-08-02T12:29:35.940Z,28.92
2017-08-02T12:30:36.050Z,28.94
2017-08-02T12:31:36.248Z,28.94
2017-08-02T12:32:35.942Z,28.92
2017-08-02T12:33:36.247Z,28.96
2017-08-02T12:34:36.051Z,29.02
2017-08-02T12:35:36.246Z,28.97
2017-08-02T12:36:36.047Z,29.03
2017-08-02T12:37:36.245Z,29.07
2017-08-02T12:38:35.938Z,29.06
2017-08-02T12:39:36.245Z,29.07
2017-08-02T12:40:36.243Z,29
2017-08-02T12:41:36.244Z,28.97
2017-08-02T12:42:36.244Z,29.02
2017-08-02T12:43:35.941Z,29.02
2017-08-02T12:44:35.934Z,29
2017-08-02T12:45:35.933Z,29.03
2017-08-02T12:46:35.932Z,29.06
2017-08-02T12:47:35.620Z,29.03
2017-08-02T12:48:35.758Z,29.05
2017-08-02T12:49:35.933Z,29.07
2017-08-02T12:50:35.930Z,29.02
2017-08-02T12:51:36.238Z,28.97
2017-08-02T12:52:36.231Z,28.87
2017-08-02T12:53:35.931Z,28.82
2017-08-02T12:54:36.240Z,28.78
2017-08-02T12:55:35.924Z,28.92
2017-08-02T12:56:35.928Z,28.82